Time;durP1;ratioP1;P1;durP2;ratioP2;P2;SDS_P1;SDS_P2;PMS_P1;PMS_P2;Temp;Humidity;BMP_temperature;BMP_pressure;BME280_temperature;BME280_humidity;BME280_pressure;Samples;Min_cycle;Max_cycle;Signal;HPM_P1;HPM_P2
2022/03/15 00:00:44;;;;;;;2.38;2.00;;;;;;;;;;4986036;28;20329;-52
2022/03/15 00:03:10;;;;;;;2.78;2.40;;;;;;;;;;4986058;28;20068;-52
2022/03/15 00:05:36;;;;;;;3.25;2.42;;;;;;;;;;4968813;28;20026;-48
2022/03/15 00:08:02;;;;;;;2.80;2.20;;;;;;;;;;4986634;28;20037;-49
2022/03/15 00:10:29;;;;;;;3.33;2.30;;;;;;;;;;4986192;28;20092;-52
2022/03/15 00:12:56;;;;;;;2.75;2.03;;;;;;;;;;4984908;28;20061;-49
2022/03/15 00:15:23;;;;;;;2.88;2.15;;;;;;;;;;4985630;28;20023;-50
2022/03/15 00:17:50;;;;;;;2.38;2.15;;;;;;;;;;4985514;28;20458;-51
2022/03/15 00:20:19;;;;;;;3.25;2.40;;;;;;;;;;4985293;28;20510;-51
2022/03/15 00:22:46;;;;;;;2.80;2.10;;;;;;;;;;4985722;28;20022;-48
2022/03/15 00:25:16;;;;;;;2.85;2.40;;;;;;;;;;4985567;28;20022;-49
2022/03/15 00:27:43;;;;;;;1.90;1.60;;;;;;;;;;4968191;28;20030;-51
2022/03/15 00:30:10;;;;;;;2.60;2.13;;;;;;;;;;4984567;28;20069;-48
2022/03/15 00:32:36;;;;;;;3.38;2.42;;;;;;;;;;4985216;28;20037;-50
2022/03/15 00:35:07;;;;;;;3.35;2.40;;;;;;;;;;4985967;28;20433;-50
2022/03/15 00:37:37;;;;;;;3.72;2.85;;;;;;;;;;4985726;28;20041;-50
2022/03/15 00:40:04;;;;;;;2.97;2.67;;;;;;;;;;4985917;28;20026;-49
2022/03/15 00:42:30;;;;;;;3.13;2.50;;;;;;;;;;4985278;28;20064;-51
2022/03/15 00:45:00;;;;;;;2.33;2.08;;;;;;;;;;4974010;28;20070;-51
2022/03/15 00:47:27;;;;;;;2.95;2.30;;;;;;;;;;4970611;28;20308;-48
2022/03/15 00:49:53;;;;;;;2.35;1.90;;;;;;;;;;4975728;28;20481;-52
2022/03/15 00:52:19;;;;;;;2.97;2.15;;;;;;;;;;4975370;28;20394;-48
2022/03/15 00:54:45;;;;;;;2.65;1.73;;;;;;;;;;4985982;28;20762;-49
2022/03/15 00:57:11;;;;;;;2.30;1.80;;;;;;;;;;4987001;28;20081;-51
2022/03/15 00:59:37;;;;;;;2.00;1.77;;;;;;;;;;4986990;28;20022;-52
2022/03/15 01:02:04;;;;;;;1.73;1.58;;;;;;;;;;4990640;28;20571;-51
2022/03/15 01:04:30;;;;;;;2.53;2.03;;;;;;;;;;5006403;28;20034;-52
2022/03/15 01:06:56;;;;;;;2.03;1.70;;;;;;;;;;5006632;28;20505;-51
2022/03/15 01:09:23;;;;;;;2.05;1.77;;;;;;;;;;5006278;28;20048;-51
2022/03/15 01:11:50;;;;;;;2.42;2.00;;;;;;;;;;5006530;28;20373;-49
2022/03/15 01:14:16;;;;;;;2.00;1.60;;;;;;;;;;5006287;28;20091;-50
2022/03/15 01:16:42;;;;;;;2.30;1.60;;;;;;;;;;4979260;28;20030;-50
2022/03/15 01:19:08;;;;;;;2.40;1.70;;;;;;;;;;4986723;28;20039;-52
2022/03/15 01:21:37;;;;;;;2.50;2.00;;;;;;;;;;4986960;28;20022;-51
2022/03/15 01:24:05;;;;;;;2.03;1.83;;;;;;;;;;4987447;28;20026;-49
2022/03/15 01:26:33;;;;;;;2.13;1.92;;;;;;;;;;4986711;28;20056;-52
2022/03/15 01:29:00;;;;;;;1.98;1.70;;;;;;;;;;4986916;28;20026;-50
2022/03/15 01:31:26;;;;;;;1.80;1.50;;;;;;;;;;4985588;28;20042;-50
2022/03/15 01:33:52;;;;;;;1.85;1.70;;;;;;;;;;4986751;28;20023;-52
2022/03/15 01:36:19;;;;;;;1.63;1.50;;;;;;;;;;4986662;28;20429;-51
2022/03/15 01:38:45;;;;;;;3.05;1.83;;;;;;;;;;4987022;28;20023;-51
2022/03/15 01:41:11;;;;;;;1.90;1.60;;;;;;;;;;4986707;28;20077;-52
2022/03/15 01:43:39;;;;;;;2.03;1.83;;;;;;;;;;4987115;28;20520;-51
2022/03/15 01:46:06;;;;;;;2.47;1.85;;;;;;;;;;4985129;28;20044;-51
2022/03/15 01:48:32;;;;;;;2.15;1.77;;;;;;;;;;4967401;28;20035;-51
2022/03/15 01:50:59;;;;;;;2.92;1.90;;;;;;;;;;4967217;28;20031;-51
2022/03/15 01:53:25;;;;;;;2.80;2.08;;;;;;;;;;4986415;28;20442;-51
2022/03/15 01:55:51;;;;;;;2.10;1.90;;;;;;;;;;4986900;28;20069;-51
2022/03/15 01:58:17;;;;;;;3.05;2.35;;;;;;;;;;4968303;28;20026;-50
2022/03/15 02:00:46;;;;;;;3.55;2.83;;;;;;;;;;4986247;28;20158;-52
2022/03/15 02:03:12;;;;;;;3.28;2.30;;;;;;;;;;4986114;28;20030;-51
2022/03/15 02:05:38;;;;;;;3.17;2.80;;;;;;;;;;4986452;28;20405;-50
2022/03/15 02:08:11;;;;;;;3.10;2.50;;;;;;;;;;4967864;28;20054;-51
2022/03/15 02:10:37;;;;;;;3.55;2.78;;;;;;;;;;4967208;28;20062;-52
2022/03/15 02:13:03;;;;;;;3.40;2.60;;;;;;;;;;4988624;28;20471;-50
2022/03/15 02:15:29;;;;;;;3.50;2.45;;;;;;;;;;4989731;28;20036;-52
2022/03/15 02:17:55;;;;;;;4.63;2.97;;;;;;;;;;4990245;28;20022;-51
2022/03/15 02:20:22;;;;;;;3.03;2.00;;;;;;;;;;4989802;28;20083;-50
2022/03/15 02:22:48;;;;;;;2.35;2.05;;;;;;;;;;4990213;28;20041;-51
2022/03/15 02:25:14;;;;;;;2.72;2.30;;;;;;;;;;4988902;28;20030;-48
2022/03/15 02:27:40;;;;;;;2.45;1.92;;;;;;;;;;4990333;28;20022;-51
2022/03/15 02:30:06;;;;;;;2.97;2.40;;;;;;;;;;4990170;28;20026;-52
2022/03/15 02:32:33;;;;;;;3.17;2.88;;;;;;;;;;4972832;28;20033;-50
2022/03/15 02:34:59;;;;;;;3.22;2.17;;;;;;;;;;4989426;28;20026;-52
2022/03/15 02:37:25;;;;;;;3.53;2.22;;;;;;;;;;4988863;28;20506;-52
2022/03/15 02:39:51;;;;;;;3.15;2.20;;;;;;;;;;4988895;28;20042;-52
2022/03/15 02:42:18;;;;;;;2.65;2.05;;;;;;;;;;4989443;28;20050;-51
2022/03/15 02:44:44;;;;;;;4.45;2.47;;;;;;;;;;4989542;28;20038;-52
2022/03/15 02:47:10;;;;;;;2.95;2.15;;;;;;;;;;4988005;28;20019;-52
2022/03/15 02:49:36;;;;;;;3.33;2.65;;;;;;;;;;4988336;28;20776;-52
2022/03/15 02:52:03;;;;;;;3.90;2.35;;;;;;;;;;4988509;28;20381;-49
2022/03/15 02:54:29;;;;;;;3.17;2.10;;;;;;;;;;4989197;28;20030;-52
2022/03/15 02:56:55;;;;;;;3.53;2.42;;;;;;;;;;4989557;28;20420;-50
2022/03/15 02:59:21;;;;;;;3.50;2.53;;;;;;;;;;4989331;28;20788;-51
2022/03/15 03:01:48;;;;;;;3.22;2.10;;;;;;;;;;4989848;28;20080;-52
2022/03/15 03:04:14;;;;;;;2.60;2.30;;;;;;;;;;4988524;28;20548;-53
2022/03/15 03:06:41;;;;;;;3.13;2.15;;;;;;;;;;4989441;28;20030;-52
2022/03/15 03:09:07;;;;;;;2.65;2.25;;;;;;;;;;4989243;28;20034;-52
2022/03/15 03:11:34;;;;;;;3.08;2.08;;;;;;;;;;4988039;28;20560;-49
2022/03/15 03:14:00;;;;;;;3.58;2.50;;;;;;;;;;4988939;28;20137;-51
2022/03/15 03:16:26;;;;;;;3.60;2.47;;;;;;;;;;4988565;28;20030;-51
2022/03/15 03:18:56;;;;;;;3.70;2.47;;;;;;;;;;4989332;28;20371;-51
2022/03/15 03:21:25;;;;;;;3.50;2.55;;;;;;;;;;4988725;28;20045;-52
2022/03/15 03:23:53;;;;;;;4.50;2.17;;;;;;;;;;4989327;28;20022;-51
2022/03/15 03:26:19;;;;;;;2.60;2.22;;;;;;;;;;4988739;28;20031;-51
2022/03/15 03:28:45;;;;;;;3.63;2.00;;;;;;;;;;4989118;28;20018;-50
2022/03/15 03:31:11;;;;;;;3.67;2.30;;;;;;;;;;4988677;28;20030;-52
2022/03/15 03:33:38;;;;;;;2.15;1.80;;;;;;;;;;4989078;28;20030;-51
2022/03/15 03:36:05;;;;;;;2.00;1.77;;;;;;;;;;4988730;28;20478;-50
2022/03/15 03:38:31;;;;;;;2.00;1.52;;;;;;;;;;4988435;28;20026;-51
2022/03/15 03:40:57;;;;;;;2.83;1.52;;;;;;;;;;4987921;28;20034;-50
2022/03/15 03:43:23;;;;;;;2.35;1.95;;;;;;;;;;4988303;28;20113;-52
2022/03/15 03:45:50;;;;;;;1.98;1.70;;;;;;;;;;4989067;28;20031;-51
2022/03/15 03:48:16;;;;;;;1.30;1.20;;;;;;;;;;4987642;28;20550;-51
2022/03/15 03:50:43;;;;;;;1.83;1.40;;;;;;;;;;4988236;28;20357;-51
2022/03/15 03:53:09;;;;;;;1.70;1.60;;;;;;;;;;4988134;28;20477;-50
2022/03/15 03:55:36;;;;;;;1.50;1.40;;;;;;;;;;4988233;28;20026;-51
2022/03/15 03:58:02;;;;;;;1.70;1.45;;;;;;;;;;4986492;28;20037;-51
2022/03/15 04:00:29;;;;;;;1.90;1.65;;;;;;;;;;4970037;28;20036;-48
2022/03/15 04:03:00;;;;;;;1.60;1.50;;;;;;;;;;4988510;28;20105;-48
2022/03/15 04:05:27;;;;;;;1.50;1.40;;;;;;;;;;4988057;28;20026;-48
2022/03/15 04:07:54;;;;;;;1.88;1.50;;;;;;;;;;4988490;28;20398;-51
2022/03/15 04:10:21;;;;;;;1.90;1.23;;;;;;;;;;4987756;28;20371;-51
2022/03/15 04:12:47;;;;;;;2.65;1.70;;;;;;;;;;4988687;28;20030;-51
2022/03/15 04:15:15;;;;;;;2.17;1.58;;;;;;;;;;4987618;28;20030;-49
2022/03/15 04:17:41;;;;;;;1.75;1.58;;;;;;;;;;4988103;28;20018;-49
2022/03/15 04:20:07;;;;;;;2.05;1.70;;;;;;;;;;4987026;28;20748;-52
2022/03/15 04:22:34;;;;;;;2.65;1.80;;;;;;;;;;4987693;28;20097;-51
2022/03/15 04:25:00;;;;;;;2.38;1.52;;;;;;;;;;4987922;28;20034;-51
2022/03/15 04:27:26;;;;;;;2.03;1.80;;;;;;;;;;4987793;28;20035;-51
2022/03/15 04:29:52;;;;;;;1.77;1.60;;;;;;;;;;4987729;28;20034;-52
2022/03/15 04:32:20;;;;;;;1.90;1.73;;;;;;;;;;4987790;28;20102;-51
2022/03/15 04:34:46;;;;;;;1.65;1.55;;;;;;;;;;4987000;28;20038;-51
2022/03/15 04:37:12;;;;;;;2.00;1.67;;;;;;;;;;4986725;28;20049;-52
2022/03/15 04:39:38;;;;;;;1.30;1.20;;;;;;;;;;4987765;28;20048;-52
2022/03/15 04:42:05;;;;;;;1.25;1.15;;;;;;;;;;4987654;28;20363;-52
2022/03/15 04:44:31;;;;;;;1.08;1.00;;;;;;;;;;4985079;28;20077;-51
2022/03/15 04:46:57;;;;;;;1.50;1.20;;;;;;;;;;4987542;28;20030;-51
2022/03/15 04:49:24;;;;;;;1.42;1.33;;;;;;;;;;4985998;28;20030;-51
2022/03/15 04:51:50;;;;;;;1.50;1.33;;;;;;;;;;4987374;28;20027;-52
2022/03/15 04:54:17;;;;;;;1.48;1.38;;;;;;;;;;4987215;28;20060;-51
2022/03/15 04:56:43;;;;;;;1.33;1.05;;;;;;;;;;4987371;28;20029;-51
2022/03/15 04:59:09;;;;;;;1.40;1.30;;;;;;;;;;4986300;28;20030;-49
2022/03/15 05:01:35;;;;;;;1.70;1.58;;;;;;;;;;4987127;28;20367;-50
2022/03/15 05:04:01;;;;;;;1.75;1.38;;;;;;;;;;4988004;28;20563;-52
2022/03/15 05:06:27;;;;;;;1.95;1.67;;;;;;;;;;4987090;28;20033;-50
2022/03/15 05:08:53;;;;;;;1.67;1.58;;;;;;;;;;4987314;28;20402;-51
2022/03/15 05:11:20;;;;;;;2.90;1.60;;;;;;;;;;4986312;28;20100;-52
2022/03/15 05:13:48;;;;;;;2.25;1.70;;;;;;;;;;4981206;28;20034;-52
2022/03/15 05:16:17;;;;;;;2.20;1.50;;;;;;;;;;4967327;28;20051;-51
2022/03/15 05:18:45;;;;;;;1.80;1.20;;;;;;;;;;4967705;28;20026;-50
2022/03/15 05:21:16;;;;;;;1.98;1.33;;;;;;;;;;4967620;28;20073;-52
2022/03/15 05:23:43;;;;;;;2.13;1.30;;;;;;;;;;4967863;28;20031;-53
2022/03/15 05:26:09;;;;;;;1.75;1.50;;;;;;;;;;4967660;28;20026;-50
2022/03/15 05:28:35;;;;;;;2.33;1.75;;;;;;;;;;4973077;28;20041;-52
2022/03/15 05:31:01;;;;;;;2.10;1.60;;;;;;;;;;4987459;28;20030;-49
2022/03/15 05:33:31;;;;;;;3.15;1.77;;;;;;;;;;4986597;28;20033;-52
2022/03/15 05:35:57;;;;;;;2.20;1.67;;;;;;;;;;4986847;28;20026;-52
2022/03/15 05:38:23;;;;;;;1.45;1.30;;;;;;;;;;4985805;28;20084;-52
2022/03/15 05:40:50;;;;;;;1.83;1.40;;;;;;;;;;4986826;28;20022;-51
2022/03/15 05:43:16;;;;;;;1.27;1.13;;;;;;;;;;4985633;28;20068;-52
2022/03/15 05:45:42;;;;;;;1.33;1.00;;;;;;;;;;4986851;28;20027;-52
2022/03/15 05:48:08;;;;;;;1.60;1.30;;;;;;;;;;4988051;28;20088;-52
2022/03/15 05:50:34;;;;;;;1.30;1.20;;;;;;;;;;4990616;28;20030;-49
2022/03/15 05:53:04;;;;;;;1.38;1.05;;;;;;;;;;4991372;28;20097;-53
2022/03/15 05:55:31;;;;;;;1.17;1.08;;;;;;;;;;4990610;28;20028;-51
2022/03/15 05:57:58;;;;;;;1.05;0.88;;;;;;;;;;4989981;28;20106;-52
2022/03/15 06:00:24;;;;;;;1.13;1.00;;;;;;;;;;4989876;28;20030;-52
2022/03/15 06:02:50;;;;;;;1.40;0.88;;;;;;;;;;4972820;28;20046;-52
2022/03/15 06:05:17;;;;;;;1.58;1.02;;;;;;;;;;4990434;28;20030;-52
2022/03/15 06:07:45;;;;;;;0.90;0.90;;;;;;;;;;4990557;28;20034;-52
2022/03/15 06:10:11;;;;;;;1.13;1.02;;;;;;;;;;4988801;28;20026;-49
2022/03/15 06:12:38;;;;;;;1.77;1.15;;;;;;;;;;4990380;28;20122;-51
2022/03/15 06:15:04;;;;;;;1.30;1.20;;;;;;;;;;4990826;28;20791;-53
2022/03/15 06:17:32;;;;;;;1.35;1.10;;;;;;;;;;4989357;28;20030;-52
2022/03/15 06:19:58;;;;;;;2.05;0.90;;;;;;;;;;4990259;28;20040;-53
2022/03/15 06:22:24;;;;;;;1.38;1.27;;;;;;;;;;4989746;28;20552;-52
2022/03/15 06:24:50;;;;;;;1.33;1.08;;;;;;;;;;4989703;28;20478;-52
2022/03/15 06:27:16;;;;;;;1.33;1.23;;;;;;;;;;4989168;28;20417;-52
2022/03/15 06:29:42;;;;;;;1.77;1.13;;;;;;;;;;4989330;28;20804;-49
2022/03/15 06:32:09;;;;;;;1.02;0.93;;;;;;;;;;4988950;28;20109;-52
2022/03/15 06:34:35;;;;;;;1.40;1.30;;;;;;;;;;4990131;28;20030;-53
2022/03/15 06:37:01;;;;;;;1.45;1.35;;;;;;;;;;4989508;28;20478;-52
2022/03/15 06:39:27;;;;;;;1.15;1.08;;;;;;;;;;4989560;28;20030;-51
2022/03/15 06:41:54;;;;;;;1.42;1.33;;;;;;;;;;4990001;28;20030;-53
2022/03/15 06:44:20;;;;;;;1.25;1.15;;;;;;;;;;4989116;28;20046;-53
2022/03/15 06:46:46;;;;;;;1.55;1.10;;;;;;;;;;4985298;28;20061;-51
2022/03/15 06:49:13;;;;;;;1.00;0.95;;;;;;;;;;4989320;28;20030;-53
2022/03/15 06:51:39;;;;;;;2.40;1.40;;;;;;;;;;4984313;28;20139;-52
2022/03/15 06:54:05;;;;;;;1.25;1.15;;;;;;;;;;4984448;28;20506;-54
2022/03/15 06:56:40;;;;;;;1.45;1.27;;;;;;;;;;4988098;28;20022;-52
2022/03/15 06:59:06;;;;;;;2.08;1.48;;;;;;;;;;4988315;28;20355;-52
2022/03/15 07:01:32;;;;;;;2.50;1.25;;;;;;;;;;4989689;28;20026;-53
2022/03/15 07:03:58;;;;;;;1.27;1.17;;;;;;;;;;4987562;28;20038;-52
2022/03/15 07:06:24;;;;;;;1.73;1.40;;;;;;;;;;4984720;28;20528;-51
2022/03/15 07:08:50;;;;;;;1.45;1.20;;;;;;;;;;4988392;28;20442;-49
2022/03/15 07:11:16;;;;;;;1.48;1.20;;;;;;;;;;4987750;28;20713;-53
2022/03/15 07:13:42;;;;;;;1.80;1.30;;;;;;;;;;4987610;28;20026;-53
2022/03/15 07:16:08;;;;;;;1.33;1.17;;;;;;;;;;4985717;28;20030;-53
2022/03/15 07:18:34;;;;;;;0.77;0.77;;;;;;;;;;4972274;28;20026;-52
2022/03/15 07:21:00;;;;;;;0.98;0.90;;;;;;;;;;4989737;28;20027;-51
2022/03/15 07:23:27;;;;;;;0.82;0.82;;;;;;;;;;4988807;28;20056;-52
2022/03/15 07:25:53;;;;;;;1.05;1.02;;;;;;;;;;4988107;28;20905;-51
2022/03/15 07:28:19;;;;;;;0.82;0.80;;;;;;;;;;4987846;28;20504;-49
2022/03/15 07:30:46;;;;;;;0.75;0.75;;;;;;;;;;4988320;28;20030;-52
2022/03/15 07:33:12;;;;;;;1.00;0.90;;;;;;;;;;4989069;28;20533;-53
2022/03/15 07:35:38;;;;;;;0.90;0.80;;;;;;;;;;4988713;28;20053;-50
2022/03/15 07:38:04;;;;;;;0.85;0.85;;;;;;;;;;4989517;28;20498;-51
2022/03/15 07:40:31;;;;;;;1.20;1.10;;;;;;;;;;4988502;28;20018;-53
2022/03/15 07:42:58;;;;;;;1.55;1.30;;;;;;;;;;4987161;28;20022;-53
2022/03/15 07:45:24;;;;;;;2.28;1.42;;;;;;;;;;4986870;28;20022;-53
2022/03/15 07:47:50;;;;;;;1.65;1.27;;;;;;;;;;4987003;28;20032;-53
2022/03/15 07:50:17;;;;;;;1.35;1.00;;;;;;;;;;4986684;28;20496;-52
2022/03/15 07:52:43;;;;;;;1.30;1.20;;;;;;;;;;4986669;28;20121;-52
2022/03/15 07:55:09;;;;;;;1.33;1.23;;;;;;;;;;4986798;28;20109;-52
2022/03/15 07:57:36;;;;;;;1.38;1.27;;;;;;;;;;4986245;28;20033;-52
2022/03/15 08:00:03;;;;;;;1.63;1.02;;;;;;;;;;4987264;28;20029;-52
2022/03/15 08:02:29;;;;;;;1.55;1.20;;;;;;;;;;4986527;28;20126;-53
2022/03/15 08:04:55;;;;;;;2.00;1.17;;;;;;;;;;4987083;28;20030;-52
2022/03/15 08:07:24;;;;;;;2.15;1.30;;;;;;;;;;4986677;28;20108;-52
2022/03/15 08:09:51;;;;;;;1.20;1.10;;;;;;;;;;4987495;28;20030;-53
2022/03/15 08:12:18;;;;;;;1.17;1.08;;;;;;;;;;4986377;28;20030;-53
2022/03/15 08:14:45;;;;;;;1.70;1.48;;;;;;;;;;4987856;28;20502;-51
2022/03/15 08:17:12;;;;;;;1.67;1.20;;;;;;;;;;4987857;28;20409;-51
2022/03/15 08:19:38;;;;;;;2.03;1.45;;;;;;;;;;4986557;28;20383;-52
2022/03/15 08:22:04;;;;;;;1.45;1.30;;;;;;;;;;4987092;28;20110;-52
2022/03/15 08:24:30;;;;;;;1.55;1.27;;;;;;;;;;4986625;28;20030;-51
2022/03/15 08:26:57;;;;;;;1.67;1.52;;;;;;;;;;4986459;28;20109;-52
2022/03/15 08:29:24;;;;;;;2.22;1.52;;;;;;;;;;4986017;28;20030;-50
2022/03/15 08:31:50;;;;;;;1.80;1.17;;;;;;;;;;4986110;28;20054;-52
2022/03/15 08:34:16;;;;;;;1.35;1.20;;;;;;;;;;4985931;28;20030;-51
2022/03/15 08:36:44;;;;;;;2.20;1.50;;;;;;;;;;4986099;28;20539;-50
2022/03/15 08:39:11;;;;;;;2.63;1.63;;;;;;;;;;4986182;28;20030;-49
2022/03/15 08:41:38;;;;;;;2.55;1.48;;;;;;;;;;4985847;28;20022;-51
2022/03/15 08:44:04;;;;;;;1.67;1.20;;;;;;;;;;4984940;28;20050;-52
2022/03/15 08:46:31;;;;;;;1.45;1.15;;;;;;;;;;4986597;28;20030;-52
2022/03/15 08:48:57;;;;;;;2.17;1.42;;;;;;;;;;4983333;28;20037;-52
2022/03/15 08:51:23;;;;;;;1.55;1.20;;;;;;;;;;4985409;28;20486;-53
2022/03/15 08:53:50;;;;;;;2.00;1.40;;;;;;;;;;4986164;28;20026;-51
2022/03/15 08:56:16;;;;;;;2.92;1.67;;;;;;;;;;4985094;28;20036;-52
2022/03/15 08:58:42;;;;;;;1.67;1.25;;;;;;;;;;4985461;28;20490;-53
2022/03/15 09:01:09;;;;;;;2.60;1.70;;;;;;;;;;4985600;28;20030;-51
2022/03/15 09:03:35;;;;;;;1.77;1.30;;;;;;;;;;4985386;28;20109;-53
2022/03/15 09:06:01;;;;;;;1.40;1.20;;;;;;;;;;4986615;28;20022;-52
2022/03/15 09:08:28;;;;;;;1.90;1.27;;;;;;;;;;4985369;28;20501;-52
2022/03/15 09:10:54;;;;;;;1.33;1.17;;;;;;;;;;4983973;28;20065;-53
2022/03/15 09:13:22;;;;;;;1.35;1.25;;;;;;;;;;4984150;28;20033;-52
2022/03/15 09:15:48;;;;;;;1.30;1.08;;;;;;;;;;4985616;28;20022;-50
2022/03/15 09:18:14;;;;;;;1.52;1.10;;;;;;;;;;4985224;28;20026;-52
2022/03/15 09:20:42;;;;;;;1.88;1.30;;;;;;;;;;4985431;28;20098;-52
2022/03/15 09:23:08;;;;;;;1.90;1.33;;;;;;;;;;4983595;28;20445;-52
2022/03/15 09:25:36;;;;;;;2.65;1.40;;;;;;;;;;4985063;28;20065;-52
2022/03/15 09:28:03;;;;;;;1.70;1.30;;;;;;;;;;4986038;28;20030;-51
2022/03/15 09:30:32;;;;;;;1.75;1.27;;;;;;;;;;4985126;28;20026;-52
2022/03/15 09:32:59;;;;;;;1.77;1.17;;;;;;;;;;4985601;28;20045;-53
2022/03/15 09:35:25;;;;;;;1.50;1.30;;;;;;;;;;4984925;28;20474;-53
2022/03/15 09:37:52;;;;;;;4.50;2.30;;;;;;;;;;4985344;28;20023;-51
2022/03/15 09:40:22;;;;;;;3.20;2.13;;;;;;;;;;4984798;28;20022;-53
2022/03/15 09:42:51;;;;;;;4.25;2.25;;;;;;;;;;4985250;28;20023;-51
2022/03/15 09:45:21;;;;;;;2.97;2.03;;;;;;;;;;4985442;28;20039;-53
2022/03/15 09:47:51;;;;;;;4.22;2.90;;;;;;;;;;4985354;28;20275;-50
2022/03/15 09:50:18;;;;;;;6.35;2.58;;;;;;;;;;4984713;28;20498;-52
2022/03/15 09:52:44;;;;;;;3.92;2.70;;;;;;;;;;4983961;28;20026;-52
2022/03/15 09:55:11;;;;;;;2.92;2.17;;;;;;;;;;4985187;28;20067;-51
2022/03/15 09:57:38;;;;;;;4.55;2.25;;;;;;;;;;4984929;28;20053;-50
2022/03/15 10:00:05;;;;;;;3.45;2.25;;;;;;;;;;4985345;28;20113;-53
2022/03/15 10:02:31;;;;;;;3.00;2.00;;;;;;;;;;4985357;28;20030;-53
2022/03/15 10:04:57;;;;;;;4.07;2.33;;;;;;;;;;4985091;28;20066;-52
2022/03/15 10:07:23;;;;;;;3.20;2.63;;;;;;;;;;4984983;28;20022;-53
2022/03/15 10:09:51;;;;;;;2.85;2.35;;;;;;;;;;4985068;28;20041;-52
2022/03/15 10:12:18;;;;;;;4.57;2.03;;;;;;;;;;4984455;28;20044;-53
2022/03/15 10:14:45;;;;;;;2.55;2.30;;;;;;;;;;4984968;28;20031;-53
2022/03/15 10:17:14;;;;;;;2.92;1.90;;;;;;;;;;4985082;28;20018;-54
2022/03/15 10:19:51;;;;;;;2.28;1.80;;;;;;;;;;4985076;28;20117;-53
2022/03/15 10:22:20;;;;;;;2.90;2.00;;;;;;;;;;4984729;28;20030;-53
2022/03/15 10:24:47;;;;;;;2.67;1.70;;;;;;;;;;4984771;28;20034;-53
2022/03/15 10:27:13;;;;;;;4.47;2.08;;;;;;;;;;4984374;28;20596;-53
2022/03/15 10:29:39;;;;;;;2.05;1.70;;;;;;;;;;4985207;28;20038;-53
2022/03/15 10:32:05;;;;;;;2.53;1.80;;;;;;;;;;4984776;28;20089;-51
2022/03/15 10:34:32;;;;;;;3.15;1.85;;;;;;;;;;4986026;28;20019;-52
2022/03/15 10:36:58;;;;;;;2.22;1.65;;;;;;;;;;4989615;28;20027;-52
2022/03/15 10:39:24;;;;;;;2.30;1.80;;;;;;;;;;4988538;28;20113;-52
2022/03/15 10:41:52;;;;;;;2.33;1.88;;;;;;;;;;4982160;28;20030;-53
2022/03/15 10:44:25;;;;;;;2.85;2.03;;;;;;;;;;4989359;28;20038;-53
2022/03/15 10:46:58;;;;;;;3.67;2.60;;;;;;;;;;4986982;28;20516;-54
2022/03/15 10:49:24;;;;;;;2.92;2.08;;;;;;;;;;4988428;28;20030;-53
2022/03/15 10:51:50;;;;;;;3.28;2.28;;;;;;;;;;4985959;28;20061;-52
2022/03/15 10:54:17;;;;;;;3.78;2.20;;;;;;;;;;4988498;28;20045;-53
2022/03/15 10:56:54;;;;;;;2.67;1.80;;;;;;;;;;4988938;28;20026;-53
2022/03/15 10:59:22;;;;;;;2.80;2.00;;;;;;;;;;4976971;28;20042;-53
2022/03/15 11:01:50;;;;;;;2.72;2.25;;;;;;;;;;4969022;28;20027;-54
2022/03/15 11:04:17;;;;;;;2.30;2.10;;;;;;;;;;4969619;28;20050;-52
2022/03/15 11:06:45;;;;;;;2.83;2.00;;;;;;;;;;4976670;28;20461;-54
2022/03/15 11:09:18;;;;;;;2.50;2.03;;;;;;;;;;4988645;28;20030;-54
2022/03/15 11:11:48;;;;;;;3.83;2.50;;;;;;;;;;4988588;28;20038;-54
2022/03/15 11:14:14;;;;;;;3.13;2.50;;;;;;;;;;4988335;28;20041;-54
2022/03/15 11:16:42;;;;;;;2.53;2.17;;;;;;;;;;4987993;28;20536;-53
2022/03/15 11:19:11;;;;;;;2.67;2.05;;;;;;;;;;4988321;28;20030;-54
2022/03/15 11:21:39;;;;;;;2.70;2.20;;;;;;;;;;4987653;28;20144;-53
2022/03/15 11:24:07;;;;;;;3.88;2.33;;;;;;;;;;4989135;28;20054;-53
2022/03/15 11:26:34;;;;;;;2.47;2.00;;;;;;;;;;4987401;28;20117;-54
2022/03/15 11:29:04;;;;;;;3.00;2.15;;;;;;;;;;4989370;28;20519;-54
2022/03/15 11:31:31;;;;;;;5.22;2.47;;;;;;;;;;4988402;28;20488;-53
2022/03/15 11:33:59;;;;;;;2.65;2.00;;;;;;;;;;4989614;28;20034;-53
2022/03/15 11:36:25;;;;;;;2.35;1.63;;;;;;;;;;4988401;28;20073;-54
2022/03/15 11:38:53;;;;;;;3.95;1.80;;;;;;;;;;4989372;28;20489;-54
2022/03/15 11:41:20;;;;;;;2.47;1.80;;;;;;;;;;4988708;28;20026;-53
2022/03/15 11:44:06;;;;;;;3.03;2.05;;;;;;;;;;4989266;28;20053;-53
2022/03/15 11:46:35;;;;;;;2.45;1.77;;;;;;;;;;4987878;28;20490;-54
2022/03/15 11:49:22;;;;;;;4.68;1.80;;;;;;;;;;4988765;28;20417;-53
2022/03/15 11:51:53;;;;;;;2.03;1.70;;;;;;;;;;4987386;28;20532;-54
2022/03/15 11:54:26;;;;;;;3.42;1.70;;;;;;;;;;4987509;28;20041;-54
2022/03/15 11:56:54;;;;;;;3.00;2.05;;;;;;;;;;4988598;28;20034;-54
2022/03/15 11:59:20;;;;;;;2.20;1.70;;;;;;;;;;4988292;28;20105;-53
2022/03/15 12:01:47;;;;;;;2.55;1.73;;;;;;;;;;4988485;28;20072;-54
2022/03/15 12:04:14;;;;;;;2.08;1.50;;;;;;;;;;4988296;28;20026;-55
2022/03/15 12:06:50;;;;;;;4.22;2.05;;;;;;;;;;4987396;28;20030;-54
2022/03/15 12:09:20;;;;;;;3.38;2.15;;;;;;;;;;4988289;28;20591;-56
2022/03/15 12:11:46;;;;;;;2.90;1.90;;;;;;;;;;4988270;28;20596;-54
2022/03/15 12:14:17;;;;;;;2.22;2.00;;;;;;;;;;4988722;28;20027;-55
2022/03/15 12:16:47;;;;;;;2.45;1.90;;;;;;;;;;4988660;28;20022;-53
2022/03/15 12:19:36;;;;;;;5.30;2.03;;;;;;;;;;4988382;28;20162;-55
2022/03/15 12:22:08;;;;;;;3.63;1.88;;;;;;;;;;4968540;28;20023;-54
2022/03/15 12:24:39;;;;;;;3.05;1.83;;;;;;;;;;4967930;28;20122;-55
2022/03/15 12:27:06;;;;;;;3.88;1.77;;;;;;;;;;4986201;28;20513;-54
2022/03/15 12:29:32;;;;;;;4.15;1.65;;;;;;;;;;4987458;28;20034;-53
2022/03/15 12:32:10;;;;;;;2.95;1.92;;;;;;;;;;4987687;28;20027;-55
2022/03/15 12:34:36;;;;;;;2.65;1.60;;;;;;;;;;4987314;28;20045;-53
2022/03/15 12:37:02;;;;;;;2.55;1.83;;;;;;;;;;4986412;28;20030;-55
2022/03/15 12:39:30;;;;;;;2.40;1.65;;;;;;;;;;4985740;28;20029;-55
2022/03/15 12:42:05;;;;;;;3.63;1.90;;;;;;;;;;4987021;28;20058;-55
2022/03/15 12:44:45;;;;;;;1.73;1.63;;;;;;;;;;4984582;28;20044;-53
2022/03/15 12:47:11;;;;;;;1.90;1.60;;;;;;;;;;4985887;28;20513;-55
2022/03/15 12:49:37;;;;;;;2.88;1.85;;;;;;;;;;4985910;28;20416;-54
2022/03/15 12:52:11;;;;;;;4.00;1.73;;;;;;;;;;4985686;28;20113;-54
2022/03/15 12:54:39;;;;;;;2.05;1.55;;;;;;;;;;4985820;28;20022;-54
2022/03/15 12:57:10;;;;;;;3.20;1.63;;;;;;;;;;4984702;28;20054;-56
2022/03/15 12:59:36;;;;;;;2.70;1.73;;;;;;;;;;4985402;28;20030;-56
2022/03/15 13:02:04;;;;;;;1.92;1.58;;;;;;;;;;4985591;28;20496;-55
2022/03/15 13:04:32;;;;;;;2.33;1.63;;;;;;;;;;4985991;28;20406;-55
2022/03/15 13:07:02;;;;;;;2.72;2.00;;;;;;;;;;4986320;28;20033;-54
2022/03/15 13:09:28;;;;;;;2.88;1.50;;;;;;;;;;4986246;28;20061;-55
2022/03/15 13:11:57;;;;;;;3.22;2.20;;;;;;;;;;4985407;28;20030;-54
2022/03/15 13:14:29;;;;;;;3.05;1.75;;;;;;;;;;4967948;28;20029;-53
2022/03/15 13:17:00;;;;;;;2.65;2.10;;;;;;;;;;4985773;28;20053;-55
2022/03/15 13:19:31;;;;;;;2.33;1.70;;;;;;;;;;4985994;28;20085;-55
2022/03/15 13:21:57;;;;;;;4.45;1.92;;;;;;;;;;4986104;28;20125;-54
2022/03/15 13:24:28;;;;;;;2.75;1.60;;;;;;;;;;4984778;28;20034;-54
2022/03/15 13:26:58;;;;;;;3.58;1.73;;;;;;;;;;4985546;28;20030;-54
2022/03/15 13:29:27;;;;;;;2.33;1.65;;;;;;;;;;4985397;28;20034;-56
2022/03/15 13:31:56;;;;;;;3.55;1.75;;;;;;;;;;4984923;28;20516;-54
2022/03/15 13:34:28;;;;;;;3.15;1.98;;;;;;;;;;4984995;28;20376;-53
2022/03/15 13:36:55;;;;;;;3.20;1.95;;;;;;;;;;4985245;28;20019;-54
2022/03/15 13:39:23;;;;;;;3.08;1.80;;;;;;;;;;4984896;28;20030;-55
2022/03/15 13:41:52;;;;;;;3.95;2.20;;;;;;;;;;4985317;28;20027;-55
2022/03/15 13:44:20;;;;;;;4.10;2.05;;;;;;;;;;4984925;28;20034;-55
2022/03/15 13:46:47;;;;;;;4.22;2.55;;;;;;;;;;4985669;28;20042;-57
2022/03/15 13:49:20;;;;;;;4.03;2.05;;;;;;;;;;4984795;28;20351;-55
2022/03/15 13:51:48;;;;;;;4.05;2.03;;;;;;;;;;4985347;28;20077;-54
2022/03/15 13:54:16;;;;;;;3.15;1.85;;;;;;;;;;4984345;28;20026;-54
2022/03/15 13:56:45;;;;;;;5.47;1.75;;;;;;;;;;4985329;28;20057;-54
2022/03/15 13:59:13;;;;;;;4.22;2.20;;;;;;;;;;4984923;28;20018;-54
2022/03/15 14:01:43;;;;;;;3.55;2.08;;;;;;;;;;4985111;28;20022;-55
2022/03/15 14:04:15;;;;;;;2.70;1.58;;;;;;;;;;4985184;28;20022;-54
2022/03/15 14:06:43;;;;;;;3.53;2.10;;;;;;;;;;4985567;28;20025;-54
2022/03/15 14:09:10;;;;;;;3.40;1.80;;;;;;;;;;4986813;28;20034;-54
2022/03/15 14:11:46;;;;;;;3.58;1.90;;;;;;;;;;4988310;28;20649;-56
2022/03/15 14:14:13;;;;;;;5.13;2.30;;;;;;;;;;4988555;28;20037;-55
2022/03/15 14:16:40;;;;;;;4.80;2.10;;;;;;;;;;4988614;28;20024;-55
2022/03/15 14:19:09;;;;;;;2.72;2.08;;;;;;;;;;4988774;28;20030;-55
2022/03/15 14:21:36;;;;;;;5.38;2.22;;;;;;;;;;4988468;28;20125;-56
2022/03/15 14:24:03;;;;;;;4.47;1.80;;;;;;;;;;4988457;28;20093;-54
2022/03/15 14:26:30;;;;;;;3.00;1.88;;;;;;;;;;4988844;28;20524;-54
2022/03/15 14:28:57;;;;;;;4.00;2.38;;;;;;;;;;4989103;28;20038;-55
2022/03/15 14:31:27;;;;;;;2.97;1.77;;;;;;;;;;4988164;28;20023;-54
2022/03/15 14:34:01;;;;;;;4.28;2.00;;;;;;;;;;4988441;28;20029;-54
2022/03/15 14:36:34;;;;;;;3.28;2.10;;;;;;;;;;4988628;28;20032;-55
2022/03/15 14:39:10;;;;;;;3.42;1.92;;;;;;;;;;4988331;28;20037;-55
2022/03/15 14:41:39;;;;;;;3.15;1.70;;;;;;;;;;4988095;28;20045;-54
2022/03/15 14:44:07;;;;;;;2.80;2.20;;;;;;;;;;4987852;28;20424;-55